createdAt,value
2019-05-18T00:02:27.834Z,33.67
2019-05-18T00:07:32.940Z,33.07
2019-05-18T00:12:39.001Z,32.83
2019-05-18T00:17:45.168Z,33.87
2019-05-18T00:22:51.188Z,32.07
2019-05-18T00:27:56.170Z,33.37
2019-05-18T00:33:01.263Z,33.07
2019-05-18T00:38:06.405Z,32.13
2019-05-18T00:43:11.351Z,32.23
2019-05-18T00:48:16.532Z,32.97
2019-05-18T00:53:21.641Z,32.63
2019-05-18T00:58:26.650Z,30.80
2019-05-18T01:03:31.487Z,32.47
2019-05-18T01:08:36.490Z,32.27
2019-05-18T01:13:41.387Z,32.80
2019-05-18T01:18:46.236Z,32.20
2019-05-18T01:23:52.473Z,32.00
2019-05-18T01:29:00.587Z,32.13
2019-05-18T01:34:05.780Z,31.83
2019-05-18T01:39:10.574Z,31.50
2019-05-18T01:44:15.383Z,31.73
2019-05-18T01:49:20.296Z,30.33
2019-05-18T01:54:26.051Z,30.77
2019-05-18T01:59:31.017Z,31.47
2019-05-18T02:04:35.944Z,30.20
2019-05-18T02:09:40.931Z,31.73
2019-05-18T02:14:45.892Z,31.20
2019-05-18T02:19:51.003Z,30.47
2019-05-18T02:24:56.163Z,31.07
2019-05-18T02:30:01.016Z,31.13
2019-05-18T02:40:28.522Z,30.53
2019-05-18T02:45:33.271Z,30.47
2019-05-18T02:50:38.112Z,30.47
2019-05-18T02:55:43.142Z,30.50
2019-05-18T03:00:48.336Z,30.23
2019-05-18T03:05:53.286Z,30.23
2019-05-18T03:10:58.379Z,30.80
2019-05-18T03:16:03.245Z,30.13
2019-05-18T03:21:08.076Z,29.33
2019-05-18T03:26:13.086Z,30.30
2019-05-18T03:31:18.114Z,30.03
2019-05-18T03:36:23.761Z,28.93
2019-05-18T03:41:30.070Z,29.40
2019-05-18T03:46:34.943Z,29.17
2019-05-18T03:51:39.785Z,28.77
2019-05-18T03:56:44.831Z,30.23
2019-05-18T04:01:49.793Z,28.67
2019-05-18T04:06:54.899Z,29.50
2019-05-18T04:11:59.843Z,28.43
2019-05-18T04:17:04.782Z,28.83
2019-05-18T04:22:09.784Z,28.97
2019-05-18T04:27:14.684Z,28.90
2019-05-18T04:32:20.560Z,29.10
2019-05-18T04:37:25.557Z,29.17
2019-05-18T04:42:30.649Z,27.87
2019-05-18T04:47:36.843Z,28.80
2019-05-18T04:52:41.899Z,27.27
2019-05-18T04:57:46.944Z,26.97
2019-05-18T05:02:51.914Z,28.20
2019-05-18T05:07:57.354Z,27.07
2019-05-18T05:13:03.432Z,27.53
2019-05-18T05:18:10.830Z,28.07
2019-05-18T05:23:15.664Z,28.97
2019-05-18T05:28:21.182Z,27.30
2019-05-18T05:33:26.613Z,27.27
2019-05-18T05:38:31.644Z,26.87
2019-05-18T05:43:36.488Z,27.17
2019-05-18T05:48:41.454Z,28.10
2019-05-18T05:53:46.639Z,27.13
2019-05-18T05:58:52.831Z,27.23
2019-05-18T06:03:58.000Z,26.23
2019-05-18T06:09:04.616Z,26.53
2019-05-18T06:14:09.890Z,27.17
2019-05-18T06:19:14.826Z,26.73
2019-05-18T06:24:19.889Z,25.87
2019-05-18T06:29:25.060Z,26.43
2019-05-18T06:34:30.123Z,27.33
2019-05-18T06:39:35.336Z,27.10
2019-05-18T06:44:40.620Z,25.87
2019-05-18T06:49:45.848Z,27.37
2019-05-18T06:54:50.925Z,26.53
2019-05-18T06:59:56.088Z,26.77
2019-05-18T07:05:01.112Z,25.87
2019-05-18T07:10:07.905Z,25.83
2019-05-18T07:15:13.310Z,25.87
2019-05-18T07:20:19.453Z,25.87
2019-05-18T07:25:24.669Z,24.77
2019-05-18T07:30:29.723Z,25.27
2019-05-18T07:35:34.881Z,25.47
2019-05-18T07:40:40.581Z,25.83
2019-05-18T07:45:46.015Z,25.27
2019-05-18T07:50:51.404Z,25.50
2019-05-18T07:55:57.569Z,25.93
2019-05-18T08:01:02.638Z,25.47
2019-05-18T08:06:08.142Z,24.50
2019-05-18T08:11:13.449Z,24.30
2019-05-18T08:16:18.682Z,24.77
2019-05-18T08:21:23.980Z,25.67
2019-05-18T08:26:29.008Z,24.17
2019-05-18T08:31:34.374Z,24.93
2019-05-18T08:36:39.644Z,25.73
2019-05-18T08:41:48.207Z,24.47
2019-05-18T08:46:52.098Z,24.97
2019-05-18T08:52:07.902Z,24.30
2019-05-18T08:57:04.253Z,24.87
2019-05-18T09:02:09.532Z,23.17
2019-05-18T09:07:14.686Z,24.63
2019-05-18T09:12:19.870Z,23.07
2019-05-18T09:17:24.887Z,23.63
2019-05-18T09:22:29.796Z,23.80
2019-05-18T09:27:34.959Z,23.50
2019-05-18T09:32:40.121Z,24.50
2019-05-18T09:37:45.385Z,24.10
2019-05-18T09:42:50.419Z,23.33
2019-05-18T09:47:55.573Z,24.07
2019-05-18T09:53:00.717Z,21.93
2019-05-18T09:58:05.877Z,22.57
2019-05-18T10:03:11.460Z,24.03
2019-05-18T10:08:16.806Z,23.43
2019-05-18T10:13:22.162Z,22.90
2019-05-18T10:18:27.504Z,22.83
2019-05-18T10:23:32.505Z,22.90
2019-05-18T10:28:37.676Z,23.07
2019-05-18T10:33:43.193Z,22.77
2019-05-18T10:38:48.558Z,21.87
2019-05-18T10:43:54.315Z,22.50
2019-05-18T10:48:59.460Z,22.50
2019-05-18T10:54:04.766Z,22.17
2019-05-18T10:59:10.289Z,22.20
2019-05-18T11:04:15.629Z,22.13
2019-05-18T11:09:20.994Z,22.13
2019-05-18T11:14:26.137Z,21.70
2019-05-18T11:19:31.507Z,21.33
2019-05-18T11:24:36.540Z,20.37
2019-05-18T11:29:41.614Z,20.53
2019-05-18T11:34:46.746Z,21.33
2019-05-18T11:39:51.844Z,21.63
2019-05-18T11:44:58.720Z,21.23
2019-05-18T11:50:05.092Z,20.83
2019-05-18T11:55:10.228Z,20.70
2019-05-18T12:00:16.942Z,19.87
2019-05-18T12:05:21.956Z,20.87
2019-05-18T12:10:27.373Z,19.83
2019-05-18T12:15:33.122Z,20.10
2019-05-18T12:20:38.564Z,20.63
2019-05-18T12:25:44.030Z,20.23
2019-05-18T12:30:49.181Z,19.73
2019-05-18T12:35:54.316Z,20.30
2019-05-18T12:40:59.603Z,20.70
2019-05-18T12:46:04.624Z,20.63
2019-05-18T12:51:09.600Z,20.63
2019-05-18T12:56:14.736Z,20.10
2019-05-18T13:01:19.915Z,20.37
2019-05-18T13:06:25.052Z,20.53
2019-05-18T13:11:30.244Z,19.93
2019-05-18T13:16:35.595Z,20.10
2019-05-18T13:21:40.927Z,20.10
2019-05-18T13:26:46.165Z,20.70
2019-05-18T13:31:51.640Z,20.67
2019-05-18T13:36:56.887Z,20.00
2019-05-18T13:42:02.256Z,19.40
2019-05-18T13:47:07.891Z,20.20
2019-05-18T13:52:13.064Z,19.10
2019-05-18T13:57:18.036Z,19.17
2019-05-18T14:02:23.200Z,19.13
2019-05-18T14:07:28.093Z,19.33
2019-05-18T14:12:33.360Z,18.53
2019-05-18T14:17:38.548Z,18.13
2019-05-18T14:22:43.976Z,19.20
2019-05-18T14:27:49.279Z,18.37
2019-05-18T14:32:54.713Z,18.00
2019-05-18T14:38:00.192Z,18.60
2019-05-18T14:43:05.647Z,18.93
2019-05-18T14:48:12.333Z,17.53
2019-05-18T14:53:17.582Z,18.50
2019-05-18T14:58:22.642Z,18.40
2019-05-18T15:03:27.696Z,18.83
2019-05-18T15:08:34.809Z,17.30
2019-05-18T15:13:40.262Z,17.07
2019-05-18T15:18:45.404Z,17.83
2019-05-18T15:23:51.972Z,18.17
2019-05-18T15:28:58.029Z,17.57
2019-05-18T15:34:04.215Z,16.97
2019-05-18T15:39:10.005Z,18.03
2019-05-18T15:44:16.903Z,17.63
2019-05-18T15:49:23.187Z,17.93
2019-05-18T15:54:29.130Z,17.97
2019-05-18T15:59:34.043Z,17.20
2019-05-18T16:04:40.101Z,17.13
2019-05-18T16:09:45.175Z,18.63
2019-05-18T16:14:51.087Z,17.90
2019-05-18T16:19:56.249Z,16.90
2019-05-18T16:25:01.285Z,16.93
2019-05-18T16:30:07.881Z,17.10
2019-05-18T16:35:12.988Z,17.33
2019-05-18T16:40:19.548Z,16.57
2019-05-18T16:45:24.590Z,16.30
2019-05-18T16:50:30.339Z,16.20
2019-05-18T16:55:35.525Z,16.83
2019-05-18T17:00:40.664Z,16.93
2019-05-18T17:05:45.768Z,16.83
2019-05-18T17:10:51.034Z,16.03
2019-05-18T17:15:56.521Z,16.10
2019-05-18T17:21:01.761Z,15.67
2019-05-18T17:26:06.957Z,15.73
2019-05-18T17:31:11.873Z,16.57
2019-05-18T17:36:19.549Z,15.77
2019-05-18T17:41:23.371Z,15.70
2019-05-18T17:46:28.533Z,14.97
2019-05-18T17:51:33.537Z,15.37
2019-05-18T17:56:38.759Z,15.37
2019-05-18T18:01:44.177Z,15.37
2019-05-18T18:06:49.287Z,14.93
2019-05-18T18:11:55.513Z,15.50
2019-05-18T18:17:00.773Z,15.40
2019-05-18T18:22:05.868Z,15.53
2019-05-18T18:27:24.051Z,15.20
2019-05-18T18:32:17.542Z,14.53
2019-05-18T18:37:22.523Z,15.63
2019-05-18T18:42:27.543Z,15.17
2019-05-18T18:47:32.678Z,15.27
2019-05-18T18:52:37.829Z,14.63
2019-05-18T18:57:42.778Z,14.77
2019-05-18T19:02:49.113Z,14.40
2019-05-18T19:07:54.191Z,14.93
2019-05-18T19:12:59.275Z,15.70
2019-05-18T19:18:04.420Z,15.47
2019-05-18T19:23:09.487Z,14.67
2019-05-18T19:28:14.623Z,15.20
2019-05-18T19:33:19.720Z,15.10
2019-05-18T19:38:24.819Z,14.50
2019-05-18T19:43:30.032Z,14.67
2019-05-18T19:48:34.992Z,14.23
2019-05-18T19:53:40.379Z,14.90
2019-05-18T19:58:45.348Z,14.53
2019-05-18T20:03:50.481Z,14.93
2019-05-18T20:08:55.686Z,15.37
2019-05-18T20:14:00.748Z,13.77
2019-05-18T20:19:05.840Z,14.33
2019-05-18T20:24:10.815Z,14.33
2019-05-18T20:29:15.855Z,13.77
2019-05-18T20:34:20.740Z,14.27
2019-05-18T20:39:25.843Z,14.83
2019-05-18T20:44:30.642Z,14.20
2019-05-18T20:49:35.518Z,14.10
2019-05-18T20:54:40.602Z,13.70
2019-05-18T20:59:45.710Z,13.87
2019-05-18T21:04:51.996Z,14.20
2019-05-18T21:09:57.078Z,13.57
2019-05-18T21:15:02.270Z,14.63
2019-05-18T21:20:07.921Z,13.67
2019-05-18T21:25:13.067Z,13.73
2019-05-18T21:30:17.945Z,14.73
2019-05-18T21:35:23.042Z,14.43
2019-05-18T21:40:27.929Z,14.97
2019-05-18T21:45:32.884Z,14.43
2019-05-18T21:50:37.781Z,14.00
2019-05-18T21:55:42.867Z,14.00
2019-05-18T22:00:47.762Z,13.73
2019-05-18T22:05:52.593Z,14.10
2019-05-18T22:10:57.592Z,13.93
2019-05-18T22:16:02.590Z,13.93
2019-05-18T22:21:07.608Z,14.00
2019-05-18T22:26:12.651Z,13.60
2019-05-18T22:31:19.620Z,13.37
2019-05-18T22:36:25.215Z,13.67
2019-05-18T22:41:30.106Z,14.20
2019-05-18T22:46:36.245Z,13.53
2019-05-18T22:51:41.457Z,13.87
2019-05-18T22:56:46.325Z,14.07
2019-05-18T23:01:51.388Z,13.77
2019-05-18T23:06:56.323Z,13.27
2019-05-18T23:12:01.240Z,13.83
2019-05-18T23:17:06.320Z,13.47
2019-05-18T23:22:11.416Z,13.40
2019-05-18T23:27:16.522Z,13.53
2019-05-18T23:32:21.484Z,13.00
2019-05-18T23:37:26.418Z,13.97
2019-05-18T23:42:31.269Z,13.70
2019-05-18T23:47:36.113Z,14.90
2019-05-18T23:52:41.134Z,14.17
2019-05-18T23:57:46.234Z,13.63
